• Join FlightAware (Why Join?)
  • Login
  • US Flag GB Flag 
03:02 EDT


 

Airport Tracker/Info


-or-


 

Live Flight TrackerFlight Track Log ✈ AAL297 ✈ 21-Apr-2013 ✈ KLAX - PHNL

Flight Track Log - Related Links

Times and Time Zones

All times are in EDT time to prevent confusion due to time zone crossing. See the AAL297 flight status page for this flight to view local times or setup timezone preferences in your user account.

Time Position Orientation Groundspeed Altitude Reporting Facility
EDT Latitude Longitude Course Direction KTS MPH feet Rate Location/Type
19:41 33.9510 -118.4530 262° West 165 190 1,500  Level FlightAware
19:41 33.9490 -118.4760 264° West 193 222 2,100 1,260 Climbing FlightAware
19:42 33.9460 -118.5080 264° West 229 264 2,700 1,320 Climbing FlightAware
19:42 33.9450 -118.5210 265° West 237 273 3,000 1,620 Climbing FlightAware
19:43 33.9400 -118.5620 262° West 269 310 3,800 2,100 Climbing FlightAware
19:43 33.9380 -118.5860 264° West 268 308 4,600 2,400 Climbing FlightAware
19:43 33.9320 -118.6280 260° West 279 321 5,600 2,040 Climbing FlightAware
19:44 33.9270 -118.6550 257° West 278 320 6,300 2,280 Climbing FlightAware
19:44 33.9160 -118.7130 257° West 284 327 7,700 2,280 Climbing FlightAware
19:45 33.9120 -118.7490 262° West 284 327 8,600 2,040 Climbing FlightAware
19:45 33.9100 -118.7880 266° West 288 331 9,400 2,040 Climbing FlightAware
19:46 33.9020 -118.8800 264° West 310 357 11,000 1,560 Climbing FlightAware
19:47 33.8940 -118.9720 264° West 348 400 11,800 1,320 Climbing FlightAware
19:47 33.8860 -119.0450 262° West 355 409 12,900 1,800 Climbing FlightAware
19:48 33.8780 -119.1270 263° West 361 415 14,200 1,320 Climbing FlightAware
19:49 33.8690 -119.2260 264° West 361 415 15,000 2,040 Climbing FlightAware
19:49 33.8600 -119.3090 263° West 373 429 17,300 2,700 Climbing FlightAware
19:50 33.8480 -119.4230 263° West 386 444 19,100 1,380 Climbing FlightAware
19:51 33.8400 -119.4920 262° West 389 448 19,400 2,040 Climbing FlightAware
19:52 33.8320 -119.5780 264° West 399 459 21,500 1,380 Climbing FlightAware
19:52 33.8200 -119.6800 262° West 399 459 21,500  Level FlightAware
19:53 33.8120 -119.7550 263° West 399 459 21,500  Level FlightAware
19:54 33.8030 -119.8300 262° West 399 459 21,500 3,480 Level FlightAware
19:55 33.7900 -119.9770 264° West 420 483 26,500 4,380 Climbing FlightAware
19:55 33.7810 -120.0620 263° West 425 489 27,400 1,440 Climbing FlightAware
19:56 33.7680 -120.1860 263° West 431 496 28,600 1,320 Climbing FlightAware
19:57 33.7570 -120.2810 262° West 436 502 29,400 1,320 Climbing FlightAware
19:57 33.7460 -120.3840 263° West 435 501 30,500 -60 Climbing FlightAware
20:00 33.7008 -120.6692 262° West  Level FlightAware Approximate
20:01 33.6849 -120.8035 262° West  Level FlightAware Approximate
20:02 33.6684 -120.9376 262° West  Level FlightAware Approximate
20:03 33.6516 -121.0717 262° West  Level FlightAware Approximate
20:04 33.6347 -121.2058 261° West  Level FlightAware Approximate
20:05 33.6189 -121.3400 262° West  Level FlightAware Approximate
20:06 33.6031 -121.4742 262° West  Level FlightAware Approximate
20:07 33.5872 -121.6083 262° West  Level FlightAware Approximate
20:08 33.5711 -121.7424 262° West  Level FlightAware Approximate
20:09 33.5548 -121.8764 262° West  Level FlightAware Approximate
20:10 33.5384 -122.0104 262° West  Level FlightAware Approximate
20:11 33.5219 -122.1444 262° West  Level FlightAware Approximate
20:12 33.5052 -122.2783 262° West  Level FlightAware Approximate
20:13 33.4884 -122.4121 261° West  Level FlightAware Approximate
20:14 33.4714 -122.5459 261° West  Level FlightAware Approximate
20:15 33.4479 -122.6777 257° West  Level FlightAware Approximate
20:16 33.4217 -122.8088 257° West  Level FlightAware Approximate
20:17 33.3953 -122.9398 256° West  Level FlightAware Approximate
20:18 33.3688 -123.0708 256° West  Level FlightAware Approximate
20:19 33.3421 -123.2017 256° West  Level FlightAware Approximate
20:20 33.3154 -123.3325 256° West  Level FlightAware Approximate
20:21 33.2884 -123.4632 256° West  Level FlightAware Approximate
20:22 33.2614 -123.5939 256° West  Level FlightAware Approximate
20:23 33.2342 -123.7244 256° West  Level FlightAware Approximate
20:24 33.2069 -123.8549 256° West  Level FlightAware Approximate
20:25 33.1794 -123.9853 256° West  Level FlightAware Approximate
20:26 33.1516 -124.1156 256° West  Level FlightAware Approximate
20:27 33.1238 -124.2458 256° West  Level FlightAware Approximate
20:28 33.0957 -124.3759 256° West  Level FlightAware Approximate
20:29 33.0667 -124.5028 270° West  Level FlightAware Approximate
20:30 33.0407 -124.6330 255° West  Level FlightAware Approximate
20:31 33.0116 -124.7626 255° West  Level FlightAware Approximate
20:32 32.9823 -124.8922 255° West  Level FlightAware Approximate
20:33 32.9529 -125.0217 255° West  Level FlightAware Approximate
20:34 32.9234 -125.1510 255° West  Level FlightAware Approximate
20:35 32.8937 -125.2803 255° West  Level FlightAware Approximate
20:36 32.8639 -125.4096 255° West  Level FlightAware Approximate
20:37 32.8340 -125.5387 255° West  Level FlightAware Approximate
20:38 32.8040 -125.6677 255° West  Level FlightAware Approximate
20:39 32.7738 -125.7967 254° West  Level FlightAware Approximate
20:40 32.7435 -125.9255 254° West  Level FlightAware Approximate
20:41 32.7130 -126.0543 254° West  Level FlightAware Approximate
20:42 32.6824 -126.1830 254° West  Level FlightAware Approximate
20:43 32.6517 -126.3116 254° West  Level FlightAware Approximate
20:44 32.6209 -126.4401 254° West  Level FlightAware Approximate
20:45 32.5899 -126.5685 254° West  Level FlightAware Approximate
20:46 32.5588 -126.6968 254° West  Level FlightAware Approximate
20:47 32.5276 -126.8251 254° West  Level FlightAware Approximate
20:48 32.4962 -126.9532 254° West  Level FlightAware Approximate
20:49 32.4647 -127.0813 254° West  Level FlightAware Approximate
20:50 32.4331 -127.2092 254° West  Level FlightAware Approximate
20:51 32.4014 -127.3371 254° West  Level FlightAware Approximate
20:52 32.3695 -127.4649 254° West  Level FlightAware Approximate
20:53 32.3375 -127.5926 254° West  Level FlightAware Approximate
20:54 32.3054 -127.7202 253° West  Level FlightAware Approximate
20:55 32.2731 -127.8477 253° West  Level FlightAware Approximate
20:56 32.2407 -127.9752 253° West  Level FlightAware Approximate
20:57 32.2082 -128.1025 253° West  Level FlightAware Approximate
20:58 32.1755 -128.2298 253° West  Level FlightAware Approximate
20:59 32.1427 -128.3569 253° West  Level FlightAware Approximate
21:00 32.1098 -128.4840 253° West  Level FlightAware Approximate
21:01 32.0768 -128.6109 253° West  Level FlightAware Approximate
21:02 32.0436 -128.7378 253° West  Level FlightAware Approximate
21:03 32.0104 -128.8646 253° West  Level FlightAware Approximate
21:04 31.9769 -128.9913 253° West  Level FlightAware Approximate
21:05 31.9434 -129.1179 253° West  Level FlightAware Approximate
21:06 31.9097 -129.2444 253° West  Level FlightAware Approximate
21:07 31.8760 -129.3708 253° West  Level FlightAware Approximate
21:08 31.8421 -129.4972 252° West  Level FlightAware Approximate
21:09 31.8080 -129.6234 252° West  Level FlightAware Approximate
21:10 31.7738 -129.7496 252° West  Level FlightAware Approximate
21:11 31.7396 -129.8756 252° West  Level FlightAware Approximate
21:12 31.7052 -130.0016 252° West  Level FlightAware Approximate
21:13 31.6706 -130.1274 252° West  Level FlightAware Approximate
21:14 31.6360 -130.2532 252° West  Level FlightAware Approximate
21:15 31.6012 -130.3788 252° West  Level FlightAware Approximate
21:16 31.5663 -130.5044 252° West  Level FlightAware Approximate
21:17 31.5312 -130.6299 252° West  Level FlightAware Approximate
21:18 31.4961 -130.7553 252° West  Level FlightAware Approximate
21:19 31.4608 -130.8806 252° West  Level FlightAware Approximate
21:20 31.4254 -131.0058 252° West  Level FlightAware Approximate
21:21 31.3899 -131.1309 252° West  Level FlightAware Approximate
21:22 31.3543 -131.2559 252° West  Level FlightAware Approximate
21:23 31.3185 -131.3808 252° West  Level FlightAware Approximate
21:24 31.2826 -131.5056 251° West  Level FlightAware Approximate
21:25 31.2467 -131.6304 251° West  Level FlightAware Approximate
21:26 31.2105 -131.7550 251° West  Level FlightAware Approximate
21:27 31.1743 -131.8795 251° West  Level FlightAware Approximate
21:28 31.1379 -132.0040 251° West  Level FlightAware Approximate
21:29 31.1015 -132.1283 251° West  Level FlightAware Approximate
21:30 31.0648 -132.2525 251° West  Level FlightAware Approximate
21:31 31.0281 -132.3767 251° West  Level FlightAware Approximate
21:32 30.9912 -132.5007 251° West  Level FlightAware Approximate
21:33 30.9542 -132.6247 251° West  Level FlightAware Approximate
21:34 30.9171 -132.7485 251° West  Level FlightAware Approximate
21:35 30.8799 -132.8723 251° West  Level FlightAware Approximate
21:36 30.8426 -132.9959 251° West  Level FlightAware Approximate
21:37 30.8051 -133.1195 251° West  Level FlightAware Approximate
21:38 30.7675 -133.2430 251° West  Level FlightAware Approximate
21:39 30.7299 -133.3663 250° West  Level FlightAware Approximate
21:40 30.6921 -133.4896 250° West  Level FlightAware Approximate
21:41 30.6541 -133.6128 250° West  Level FlightAware Approximate
21:42 30.6161 -133.7359 250° West  Level FlightAware Approximate
21:43 30.5779 -133.8589 250° West  Level FlightAware Approximate
21:44 30.5397 -133.9817 250° West  Level FlightAware Approximate
21:45 30.5013 -134.1045 250° West  Level FlightAware Approximate
21:46 30.4628 -134.2272 250° West  Level FlightAware Approximate
21:47 30.4242 -134.3498 250° West  Level FlightAware Approximate
21:48 30.3854 -134.4723 250° West  Level FlightAware Approximate
21:49 30.3466 -134.5947 250° West  Level FlightAware Approximate
21:50 30.3076 -134.7170 250° West  Level FlightAware Approximate
21:51 30.2685 -134.8392 250° West  Level FlightAware Approximate
21:52 30.2293 -134.9613 250° West  Level FlightAware Approximate
21:53 30.1901 -135.0833 250° West  Level FlightAware Approximate
21:54 30.1506 -135.2052 250° West  Level FlightAware Approximate
21:55 30.1111 -135.3271 249° West  Level FlightAware Approximate
21:56 30.0715 -135.4488 249° West  Level FlightAware Approximate
21:57 30.0317 -135.5704 249° West  Level FlightAware Approximate
21:58 29.9919 -135.6919 249° West  Level FlightAware Approximate
21:59 29.9519 -135.8134 249° West  Level FlightAware Approximate
22:00 29.9118 -135.9347 249° West  Level FlightAware Approximate
22:01 29.8716 -136.0559 249° West  Level FlightAware Approximate
22:02 29.8313 -136.1770 249° West  Level FlightAware Approximate
22:03 29.7909 -136.2981 249° West  Level FlightAware Approximate
22:04 29.7504 -136.4190 249° West  Level FlightAware Approximate
22:05 29.7097 -136.5399 249° West  Level FlightAware Approximate
22:06 29.6690 -136.6606 249° West  Level FlightAware Approximate
22:07 29.6281 -136.7812 249° West  Level FlightAware Approximate
22:08 29.5872 -136.9018 249° West  Level FlightAware Approximate
22:09 29.5461 -137.0222 249° West  Level FlightAware Approximate
22:10 29.5049 -137.1426 249° West  Level FlightAware Approximate
22:11 29.4636 -137.2628 249° West  Level FlightAware Approximate
22:12 29.4222 -137.3830 248° West  Level FlightAware Approximate
22:13 29.3807 -137.5030 248° West  Level FlightAware Approximate
22:14 29.3391 -137.6230 248° West  Level FlightAware Approximate
22:15 29.2974 -137.7428 248° West  Level FlightAware Approximate
22:16 29.2556 -137.8626 248° West  Level FlightAware Approximate
22:17 29.2136 -137.9823 248° West  Level FlightAware Approximate
22:18 29.1716 -138.1018 248° West  Level FlightAware Approximate
22:19 29.1294 -138.2213 248° West  Level FlightAware Approximate
22:20 29.0872 -138.3407 248° West  Level FlightAware Approximate
22:21 29.0448 -138.4599 248° West  Level FlightAware Approximate
22:22 29.0024 -138.5791 248° West  Level FlightAware Approximate
22:23 28.9598 -138.6982 248° West  Level FlightAware Approximate
22:24 28.9171 -138.8172 248° West  Level FlightAware Approximate
22:25 28.8744 -138.9360 248° West  Level FlightAware Approximate
22:26 28.8315 -139.0548 248° West  Level FlightAware Approximate
22:27 28.7885 -139.1735 248° West  Level FlightAware Approximate
22:28 28.7454 -139.2921 248° West  Level FlightAware Approximate
22:29 28.7022 -139.4106 247° West  Level FlightAware Approximate
22:30 28.6584 -139.5287 247° West  Level FlightAware Approximate
22:31 28.6145 -139.6468 247° West  Level FlightAware Approximate
22:32 28.5705 -139.7647 247° West  Level FlightAware Approximate
22:33 28.5264 -139.8826 247° West  Level FlightAware Approximate
22:34 28.4822 -140.0003 247° West  Level FlightAware Approximate
22:35 28.4379 -140.1180 247° West  Level FlightAware Approximate
22:36 28.3934 -140.2355 247° West  Level FlightAware Approximate
22:37 28.3489 -140.3530 247° West  Level FlightAware Approximate
22:38 28.3043 -140.4703 247° West  Level FlightAware Approximate
22:39 28.2596 -140.5876 247° West  Level FlightAware Approximate
22:40 28.2148 -140.7047 247° West  Level FlightAware Approximate
22:41 28.1698 -140.8218 246° West  Level FlightAware Approximate
22:42 28.1248 -140.9388 246° West  Level FlightAware Approximate
22:43 28.0797 -141.0556 246° West  Level FlightAware Approximate
22:44 28.0345 -141.1724 246° West  Level FlightAware Approximate
22:45 27.9892 -141.2890 246° West  Level FlightAware Approximate
22:46 27.9438 -141.4056 246° West  Level FlightAware Approximate
22:47 27.8983 -141.5221 246° West  Level FlightAware Approximate
22:48 27.8526 -141.6385 246° West  Level FlightAware Approximate
22:49 27.8069 -141.7547 246° West  Level FlightAware Approximate
22:50 27.7611 -141.8709 246° West  Level FlightAware Approximate
22:51 27.7153 -141.9870 246° West  Level FlightAware Approximate
22:52 27.6701 -142.1034 246° West  Level FlightAware Approximate
22:53 27.6248 -142.2197 246° West  Level FlightAware Approximate
22:54 27.5794 -142.3359 246° West  Level FlightAware Approximate
22:55 27.5339 -142.4520 246° West  Level FlightAware Approximate
22:56 27.4883 -142.5680 246° West  Level FlightAware Approximate
22:57 27.4427 -142.6839 246° West  Level FlightAware Approximate
22:58 27.3969 -142.7997 246° West  Level FlightAware Approximate
22:59 27.3510 -142.9154 246° West  Level FlightAware Approximate
23:00 27.3051 -143.0310 246° West  Level FlightAware Approximate
23:01 27.2590 -143.1465 246° West  Level FlightAware Approximate
23:02 27.2129 -143.2619 246° West  Level FlightAware Approximate
23:03 27.1666 -143.3773 246° West  Level FlightAware Approximate
23:04 27.1203 -143.4925 246° West  Level FlightAware Approximate
23:05 27.0739 -143.6076 246° West  Level FlightAware Approximate
23:06 27.0268 -143.7224 245° Southwest  Level FlightAware Approximate
23:07 26.9791 -143.8368 245° Southwest  Level FlightAware Approximate
23:08 26.9313 -143.9511 245° Southwest  Level FlightAware Approximate
23:09 26.8835 -144.0653 245° Southwest  Level FlightAware Approximate
23:10 26.8355 -144.1794 245° Southwest  Level FlightAware Approximate
23:11 26.7874 -144.2934 245° Southwest  Level FlightAware Approximate
23:12 26.7393 -144.4073 245° Southwest  Level FlightAware Approximate
23:13 26.6913 -144.5212 245° Southwest  Level FlightAware Approximate
23:14 26.6441 -144.6355 245° Southwest  Level FlightAware Approximate
23:15 26.5968 -144.7498 245° Southwest  Level FlightAware Approximate
23:16 26.5495 -144.8639 245° Southwest  Level FlightAware Approximate
23:17 26.5021 -144.9780 245° Southwest  Level FlightAware Approximate
23:18 26.4546 -145.0919 245° Southwest  Level FlightAware Approximate
23:19 26.4069 -145.2058 245° Southwest  Level FlightAware Approximate
23:20 26.3592 -145.3196 245° Southwest  Level FlightAware Approximate
23:21 26.3115 -145.4332 245° Southwest  Level FlightAware Approximate
23:22 26.2636 -145.5468 245° Southwest  Level FlightAware Approximate
23:23 26.2156 -145.6603 245° Southwest  Level FlightAware Approximate
23:24 26.1675 -145.7737 245° Southwest  Level FlightAware Approximate
23:25 26.1194 -145.8870 245° Southwest  Level FlightAware Approximate
23:26 26.0712 -146.0002 245° Southwest  Level FlightAware Approximate
23:27 26.0229 -146.1133 245° Southwest  Level FlightAware Approximate
23:28 25.9742 -146.2262 244° Southwest  Level FlightAware Approximate
23:29 25.9252 -146.3388 244° Southwest  Level FlightAware Approximate
23:30 25.8762 -146.4514 244° Southwest  Level FlightAware Approximate
23:31 25.8270 -146.5639 244° Southwest  Level FlightAware Approximate
23:32 25.7778 -146.6763 244° Southwest  Level FlightAware Approximate
23:33 25.7285 -146.7886 244° Southwest  Level FlightAware Approximate
23:34 25.6791 -146.9008 244° Southwest  Level FlightAware Approximate
23:35 25.6296 -147.0129 244° Southwest  Level FlightAware Approximate
23:36 25.5799 -147.1249 244° Southwest  Level FlightAware Approximate
23:37 25.5302 -147.2368 244° Southwest  Level FlightAware Approximate
23:38 25.4804 -147.3486 244° Southwest  Level FlightAware Approximate
23:39 25.4306 -147.4603 244° Southwest  Level FlightAware Approximate
23:40 25.3806 -147.5719 244° Southwest  Level FlightAware Approximate
23:41 25.3306 -147.6835 244° Southwest  Level FlightAware Approximate
23:42 25.2804 -147.7949 244° Southwest  Level FlightAware Approximate
23:43 25.2302 -147.9062 244° Southwest  Level FlightAware Approximate
23:44 25.1799 -148.0175 243° Southwest  Level FlightAware Approximate
23:45 25.1296 -148.1286 243° Southwest  Level FlightAware Approximate
23:46 25.0791 -148.2397 243° Southwest  Level FlightAware Approximate
23:47 25.0285 -148.3507 243° Southwest  Level FlightAware Approximate
23:48 24.9779 -148.4616 243° Southwest  Level FlightAware Approximate
23:49 24.9272 -148.5724 243° Southwest  Level FlightAware Approximate
23:50 24.8764 -148.6831 243° Southwest  Level FlightAware Approximate
23:51 24.8256 -148.7937 243° Southwest  Level FlightAware Approximate
23:52 24.7746 -148.9042 243° Southwest  Level FlightAware Approximate
23:53 24.7236 -149.0146 243° Southwest  Level FlightAware Approximate
23:54 24.6725 -149.1250 243° Southwest  Level FlightAware Approximate
23:55 24.6213 -149.2352 243° Southwest  Level FlightAware Approximate
23:56 24.5700 -149.3454 243° Southwest  Level FlightAware Approximate
23:57 24.5186 -149.4555 243° Southwest  Level FlightAware Approximate
23:58 24.4672 -149.5654 243° Southwest  Level FlightAware Approximate
23:59 24.4157 -149.6753 243° Southwest  Level FlightAware Approximate
00:00 24.3641 -149.7851 243° Southwest  Level FlightAware Approximate
00:01 24.3124 -149.8948 243° Southwest  Level FlightAware Approximate
00:02 24.2607 -150.0045 243° Southwest  Level FlightAware Approximate
00:03 24.2088 -150.1140 243° Southwest  Level FlightAware Approximate
00:04 24.1569 -150.2234 243° Southwest  Level FlightAware Approximate
00:05 24.1049 -150.3328 243° Southwest  Level FlightAware Approximate
00:06 24.0529 -150.4420 242° Southwest  Level FlightAware Approximate
00:07 24.0007 -150.5512 242° Southwest  Level FlightAware Approximate
00:08 23.9485 -150.6603 242° Southwest  Level FlightAware Approximate
00:09 23.8962 -150.7693 242° Southwest  Level FlightAware Approximate
00:10 23.8438 -150.8782 242° Southwest  Level FlightAware Approximate
00:11 23.7914 -150.9870 242° Southwest  Level FlightAware Approximate
00:12 23.7389 -151.0958 242° Southwest  Level FlightAware Approximate
00:13 23.6863 -151.2044 242° Southwest  Level FlightAware Approximate
00:14 23.6336 -151.3130 242° Southwest  Level FlightAware Approximate
00:15 23.5808 -151.4215 242° Southwest  Level FlightAware Approximate
00:16 23.5280 -151.5298 242° Southwest  Level FlightAware Approximate
00:17 23.4751 -151.6382 242° Southwest  Level FlightAware Approximate
00:18 23.4221 -151.7464 242° Southwest  Level FlightAware Approximate
00:19 23.3691 -151.8545 242° Southwest  Level FlightAware Approximate
00:20 23.3160 -151.9625 242° Southwest  Level FlightAware Approximate
00:21 23.2628 -152.0705 242° Southwest  Level FlightAware Approximate
00:22 23.2095 -152.1783 242° Southwest  Level FlightAware Approximate
00:23 23.1561 -152.2861 242° Southwest  Level FlightAware Approximate
00:24 23.1027 -152.3938 242° Southwest  Level FlightAware Approximate
00:25 23.0492 -152.5014 242° Southwest  Level FlightAware Approximate
00:26 22.9955 -152.6089 241° Southwest  Level FlightAware Approximate
00:27 22.9412 -152.7159 241° Southwest  Level FlightAware Approximate
00:28 22.8868 -152.8228 241° Southwest  Level FlightAware Approximate
00:29 22.8324 -152.9297 241° Southwest  Level FlightAware Approximate
00:30 22.7778 -153.0365 241° Southwest  Level FlightAware Approximate
00:31 22.7232 -153.1432 241° Southwest  Level FlightAware Approximate
00:32 22.6686 -153.2498 241° Southwest  Level FlightAware Approximate
00:33 22.6138 -153.3563 241° Southwest  Level FlightAware Approximate
00:34 22.5590 -153.4628 241° Southwest  Level FlightAware Approximate
00:35 22.5041 -153.5691 241° Southwest  Level FlightAware Approximate
00:36 22.4492 -153.6754 241° Southwest  Level FlightAware Approximate
00:37 22.3942 -153.7816 241° Southwest  Level FlightAware Approximate
00:38 22.3506 -153.8908 271° West  Level FlightAware Approximate
00:39 22.3534 -154.0124 271° West  Level FlightAware Approximate
00:40 22.3561 -154.1340 271° West  Level FlightAware Approximate
00:41 22.3588 -154.2557 271° West  Level FlightAware Approximate
00:42 22.3613 -154.3773 271° West  Level FlightAware Approximate
00:43 22.3638 -154.4989 271° West  Level FlightAware Approximate
00:44 22.3662 -154.6206 271° West  Level FlightAware Approximate
00:45 22.3685 -154.7423 271° West  Level FlightAware Approximate
00:46 22.3707 -154.8639 271° West  Level FlightAware Approximate
00:47 22.3728 -154.9856 271° West  Level FlightAware Approximate
00:48 22.3748 -155.1073 271° West  Level FlightAware Approximate
00:49 22.3767 -155.2289 271° West  Level FlightAware Approximate
00:50 22.3786 -155.3506 271° West  Level FlightAware Approximate
00:51 22.3803 -155.4723 271° West  Level FlightAware Approximate
00:52 22.3820 -155.5939 271° West  Level FlightAware Approximate
00:53 22.3833 -155.7156 270° West  Level FlightAware Approximate
00:54 22.3834 -155.8373 270° West  Level FlightAware Approximate
00:55 22.3834 -155.9590 270° West  Level FlightAware Approximate
00:56 22.3834 -156.0807 270° West  Level FlightAware Approximate
00:57 22.3833 -156.2024 270° West  Level FlightAware Approximate
00:58 22.3359 -156.3077 231° Southwest  Level FlightAware Approximate
00:59 22.2643 -156.4016 230° Southwest  Level FlightAware Approximate
01:00 22.1924 -156.4950 230° Southwest  Level FlightAware Approximate
01:01 22.1229 -156.5906 234° Southwest  Level FlightAware Approximate
01:02 22.0486 -156.6817 228° Southwest  Level FlightAware Approximate
01:03 21.9810 -156.7785 234° Southwest  Level FlightAware Approximate
01:04 21.9058 -156.8685 226° Southwest  Level FlightAware Approximate
01:05 21.8286 -156.9567 232° Southwest  Level FlightAware Approximate
01:06 21.7600 -157.0527 232° Southwest  Level FlightAware Approximate
01:06 21.4240 -157.4860 232° Southwest 368 423 13,800  Level FlightAware
01:07 21.6914 -157.1487 232° Southwest  Level FlightAware Approximate
01:07 21.3800 -157.6220 251° West 301 346 10,100  Level FlightAware
01:08 21.3680 -157.6590 251° West 270 311 9,800 -960 Descending FlightAware
01:08 21.3580 -157.6860 248° West 270 311 9,300 -1,440 Descending FlightAware
01:09 21.3400 -157.7340 248° West 264 304 8,400 -1,320 Descending FlightAware
01:09 21.3300 -157.7610 248° West 262 302 8,000 -360 Descending FlightAware
01:10 21.3120 -157.8130 250° West 255 293 8,000 -120 Level FlightAware
01:10 21.3010 -157.8420 248° West 252 290 7,900 -180 Descending FlightAware
01:10 21.2930 -157.8630 248° West 231 266 7,900 -360 Level FlightAware
01:11 21.2810 -157.8920 246° West 219 252 7,600 -900 Descending FlightAware
01:11 21.2730 -157.9010 226° Southwest 221 254 7,300 -1,380 Descending FlightAware
01:12 21.2520 -157.9220 223° Southwest 220 253 6,700 -1,200 Descending FlightAware
01:12 21.2290 -157.9450 223° Southwest 218 251 6,100 -600 Descending FlightAware
01:13 21.2090 -157.9640 222° Southwest 218 251 6,100 -960 Level FlightAware
01:13 21.1840 -157.9920 226° Southwest 218 251 5,100 -1,740 Descending FlightAware
01:16 21.3187 -157.9224 26° Northeast  Level Estimated
01:17 21.3187 -157.9224 43° Northeast  Level Estimated
01:18 21.3187 -157.9224 43° Northeast  Level Estimated
01:19 21.3187 -157.9224 43° Northeast  Level Estimated
01:20 21.3187 -157.9224 43° Northeast  Level Estimated